Pajarito, New Mexico
Current Conditions -  °F | °C
As of 10:35 AM on Monday 22 Dec 2014 (Local Time) from KLAM Reporting Station
Clear Clear  
Wind Chill:   Ceiling: Unl
Heat Index:   Visibility: 10mi
Dew Point: -4°   Wind: 17mph
Humidity: 41%   Direction: 290°WNW
Pressure: 29.84"   Gusts: 29mph
Location:  35.9775°N, 106.158°W
Report Text: KLAM 221735Z AUTO 29015G25KT 10SM CLR 08/M04 A2984 RMK AO2 T00811044
Loading
Personal Weather Stations






























Interactive Weather Map New forecast layout! Learn more

10-Day Weather Forecast

Advertisements
Track Severe Weather on mobile